Flight Track Log - Related Links

Times and Time Zones

All times are in EDT time to prevent confusion due to time zone crossing. See the ASQ6115 flight status page for this flight to view local times or setup timezone preferences in your user account.

Time Position Orientation Groundspeed Altitude Reporting Facility
EDT Latitude Longitude Course Direction KTS MPH feet Rate Location/Type
Sat 05:55:44 PM 35.7642 -84.0517 226° Southwest 198 228 2,900  Level Atlanta Center
Sat 05:56:44 PM 35.7225 -84.1103 229° Southwest 238 274 5,000 2,300 Climbing Atlanta Center
Sat 05:57:44 PM 35.6744 -84.1767 228° Southwest 266 306 7,500 2,400 Climbing Atlanta Center
Sat 05:58:00 PM 35.5402 -84.3627 226° Southwest  Level FlightAware
Sat 05:58:44 PM 35.6283 -84.2406 228° Southwest 271 312 9,800  Level Atlanta Center
Sat 05:59:00 PM 35.4699 -84.4530 226° Southwest  Level FlightAware
Sat 05:59:44 PM 35.5947 -84.3375 247° West 283 326 10,800  Level Atlanta Center
Sat 06:00:00 PM 35.3995 -84.5432 226° Southwest  Level FlightAware
Sat 06:00:44 PM 35.5592 -84.4472 248° West 323 372 11,900  Level Atlanta Center
Sat 06:01:00 PM 35.3290 -84.6330 226° Southwest  Level FlightAware
Sat 06:01:44 PM 35.5231 -84.5592 248° West 344 396 13,200  Level Atlanta Center
Sat 06:02:44 PM 35.4747 -84.6686 242° Southwest 358 412 14,600 1,450 Climbing Atlanta Center
Sat 06:03:44 PM 35.4219 -84.7753 239° Southwest 364 419 16,100 1,300 Climbing Atlanta Center
Sat 06:04:44 PM 35.3797 -84.8589 238° Southwest 364 419 17,200 1,250 Climbing Atlanta Center
Sat 06:05:44 PM 35.3247 -84.9731 239° Southwest 364 419 18,600 1,450 Climbing Atlanta Center
Sat 06:06:44 PM 35.2717 -85.0792 239° Southwest 364 419 20,100 1,500 Climbing Atlanta Center
Sat 06:07:44 PM 35.2164 -85.1828 237° Southwest 364 419 21,600 1,500 Climbing Atlanta Center
Sat 06:08:44 PM 35.1633 -85.2836 237° Southwest 364 419 23,100 1,200 Climbing Atlanta Center
Sat 06:09:44 PM 35.1119 -85.3919 240° Southwest 364 419 24,000 450 Climbing Atlanta Center
Sat 06:10:44 PM 35.0522 -85.5028 237° Southwest 376 433 24,000  Level Atlanta Center
Sat 06:11:44 PM 34.9925 -85.6233 239° Southwest 399 459 24,000  Level Atlanta Center
Sat 06:12:44 PM 34.9325 -85.7439 239° Southwest 415 478 24,000  Level Atlanta Center
Sat 06:13:44 PM 34.8722 -85.8617 238° Southwest 420 483 24,000  Level Atlanta Center
Sat 06:14:44 PM 34.8078 -85.9817 237° Southwest 425 489 24,000  Level Atlanta Center
Sat 06:15:44 PM 34.7453 -86.1042 238° Southwest 425 489 24,000  Level Atlanta Center
Sat 06:16:44 PM 34.6847 -86.2239 238° Southwest 425 489 24,000  Level Atlanta Center
Sat 06:17:44 PM 34.6222 -86.3408 237° Southwest 425 489 24,000  Level Atlanta Center
Sat 06:18:44 PM 34.5594 -86.4603 237° Southwest 425 489 24,000  Level Atlanta Center
Sat 06:19:44 PM 34.4944 -86.5817 237° Southwest 425 489 24,000  Level Atlanta Center
Sat 06:20:44 PM 34.4314 -86.7008 237° Southwest 425 489 24,000  Level Atlanta Center
Sat 06:22:08 PM 34.3386 -86.8708 237° Southwest 425 489 24,000  Level Memphis Center
Sat 06:23:08 PM 34.2775 -87.0017 241° Southwest 431 496 24,000  Level Memphis Center
Sat 06:24:08 PM 34.2139 -87.1169 236° Southwest 436 502 24,000  Level Memphis Center
Sat 06:26:08 PM 34.0819 -87.3478 235° Southwest 403 464 24,000  Level Memphis Center
Sat 06:27:08 PM 34.0219 -87.4650 238° Southwest 419 482 24,000  Level Memphis Center
Sat 06:28:08 PM 33.9581 -87.5850 237° Southwest 425 489 24,000  Level Memphis Center
Sat 06:29:08 PM 33.8958 -87.6994 237° Southwest 417 480 24,000  Level Memphis Center
Sat 06:30:08 PM 33.8275 -87.8292 238° Southwest 413 475 24,000  Level Memphis Center
Sat 06:31:08 PM 33.7569 -87.9536 236° Southwest 431 496 24,000  Level Memphis Center
Sat 06:32:08 PM 33.6903 -88.0703 236° Southwest 431 496 24,000  Level Memphis Center
Sat 06:33:08 PM 33.6256 -88.1892 237° Southwest 431 496 24,000  Level Memphis Center
Sat 06:34:08 PM 33.5631 -88.3081 238° Southwest 431 496 24,000  Level Memphis Center
Sat 06:35:08 PM 33.5042 -88.4139 236° Southwest 431 496 24,000  Level Memphis Center
Sat 06:36:08 PM 33.4392 -88.5300 236° Southwest 431 496 24,000  Level Memphis Center
Sat 06:37:08 PM 33.3742 -88.6483 237° Southwest 431 496 24,000  Level Memphis Center
Sat 06:38:08 PM 33.3067 -88.7664 236° Southwest 431 496 24,000  Level Memphis Center
Sat 06:39:08 PM 33.2433 -88.8844 237° Southwest 431 496 24,000  Level Memphis Center
Sat 06:40:08 PM 33.1758 -89.0044 236° Southwest 431 496 24,000  Level Memphis Center
Sat 06:41:08 PM 33.1103 -89.1172 235° Southwest 431 496 24,000  Level Memphis Center
Sat 06:42:08 PM 33.0447 -89.2369 237° Southwest 426 490 24,000  Level Memphis Center
Sat 06:43:08 PM 32.9789 -89.3494 235° Southwest 426 490 24,000  Level Memphis Center
Sat 06:44:08 PM 32.9128 -89.4639 235° Southwest 426 490 24,000  Level Memphis Center
Sat 06:45:08 PM 32.8469 -89.5808 236° Southwest 426 490 24,000  Level Memphis Center
Sat 06:46:08 PM 32.7808 -89.6925 235° Southwest 426 490 24,000  Level Memphis Center
Sat 06:47:08 PM 32.7167 -89.8092 237° Southwest 426 490 24,000  Level Memphis Center
Sat 06:48:08 PM 32.6503 -89.9206 235° Southwest 426 490 24,000  Level Memphis Center
Sat 06:49:08 PM 32.5839 -90.0342 235° Southwest 426 490 24,000  Level Memphis Center
Sat 06:50:08 PM 32.5194 -90.1456 236° Southwest 420 483 24,000  Level Memphis Center
Sat 06:51:08 PM 32.4589 -90.2614 238° Southwest 420 483 24,000  Level Memphis Center
Sat 06:52:08 PM 32.3964 -90.3794 238° Southwest 425 489 24,000  Level Memphis Center
Sat 06:53:08 PM 32.3358 -90.4950 238° Southwest 425 489 24,000  Level Memphis Center
Sat 06:54:08 PM 32.2750 -90.6128 239° Southwest 425 489 24,000  Level Memphis Center
Sat 06:54:38 PM 32.2481 -90.6650 239° Southwest 416 479 24,000  Level Houston Center
Sat 06:55:40 PM 32.1803 -90.7922 238° Southwest 419 482 24,000  Level Houston Center
Sat 06:56:41 PM 32.1189 -90.9092 238° Southwest 421 484 24,000  Level Houston Center
Sat 06:57:43 PM 32.0575 -91.0264 238° Southwest 420 483 24,000  Level Houston Center
Sat 06:58:44 PM 31.9939 -91.1447 238° Southwest 427 491 24,000  Level Houston Center
Sat 06:59:45 PM 31.9786 -91.2842 263° West 433 498 24,000  Level Houston Center
Sat 07:00:47 PM 31.9597 -91.4508 262° West 431 496 24,000  Level Houston Center
Sat 07:01:48 PM 31.9433 -91.5900 262° West 430 495 24,000  Level Houston Center
Sat 07:02:50 PM 31.9100 -91.7228 254° West 426 490 24,000  Level Houston Center
Sat 07:03:51 PM 31.8750 -91.8544 253° West 425 489 24,000  Level Houston Center
Sat 07:04:53 PM 31.8419 -91.9861 254° West 422 486 24,000  Level Houston Center
Sat 07:05:54 PM 31.7861 -92.1200 244° Southwest 421 484 24,000  Level Houston Center
Sat 07:06:56 PM 31.7250 -92.2369 238° Southwest 422 486 24,000  Level Houston Center
Sat 07:07:57 PM 31.6492 -92.3439 230° Southwest 426 490 24,000  Level Houston Center
Sat 07:08:59 PM 31.5739 -92.4500 230° Southwest 424 488 24,000  Level Houston Center
Sat 07:10:00 PM 31.5000 -92.5569 231° Southwest 424 488 24,000  Level Houston Center
Sat 07:11:01 PM 31.4256 -92.6636 231° Southwest 425 489 24,000  Level Houston Center
Sat 07:12:03 PM 31.3489 -92.7689 230° Southwest 426 490 24,000  Level Houston Center
Sat 07:13:04 PM 31.2572 -92.8972 230° Southwest 428 493 24,000  Level Houston Center
Sat 07:14:06 PM 31.1806 -93.0053 230° Southwest 431 496 24,000  Level Houston Center
Sat 07:15:07 PM 31.1033 -93.1144 230° Southwest 437 503 24,000  Level Houston Center
Sat 07:16:08 PM 31.0244 -93.2239 230° Southwest 441 507 24,000  Level Houston Center
Sat 07:17:10 PM 30.9467 -93.3328 230° Southwest 439 505 24,000  Level Houston Center
Sat 07:18:11 PM 30.8700 -93.4403 230° Southwest 436 502 24,000  Level Houston Center
Sat 07:19:13 PM 30.7931 -93.5467 230° Southwest 433 498 24,000  Level Houston Center
Sat 07:20:14 PM 30.7169 -93.6531 230° Southwest 433 498 24,000  Level Houston Center
Sat 07:21:15 PM 30.6231 -93.7825 230° Southwest 434 499 24,000 -683 Level Houston Center
Sat 07:22:17 PM 30.5472 -93.8858 230° Southwest 435 501 22,600 -1,705 Descending Houston Center
Sat 07:22:43 PM 30.5086 -93.9378 229° Southwest 434 499 21,500 -2,262 Descending Houston Center
Sat 07:23:18 PM 30.4733 -93.9881 231° Southwest 420 483 20,300 -2,703 Descending Houston Center
Sat 07:24:14 PM 30.4014 -94.0833 229° Southwest 383 441 17,400 -2,757 Descending Houston Center
Sat 07:25:09 PM 30.3597 -94.1711 241° Southwest 338 389 15,200 -2,276 Descending Houston Center
Sat 07:26:10 PM 30.3239 -94.2753 248° West 328 377 13,000 -1,561 Descending Houston Center
Sat 07:27:12 PM 30.2881 -94.3794 248° West 335 386 12,000 -634 Descending Houston Center
Sat 07:28:13 PM 30.2550 -94.4708 247° West 323 372 11,700 -893 Descending Houston Center
Sat 07:29:13 PM 30.2225 -94.5694 249° West 297 342 10,200 -1,636 Descending Houston Center
Sat 07:30:14 PM 30.1928 -94.6531 248° West 269 310 8,400 -1,707 Descending Houston Center
Sat 07:31:16 PM 30.1628 -94.7342 247° West 285 328 6,700 -1,171 Descending Houston Center
Sat 07:32:17 PM 30.1350 -94.8153 248° West 269 310 6,000 -344 Descending Houston Center
Sat 07:33:18 PM 30.1058 -94.9058 250° West 279 321 6,000  Level Houston Center
Sat 07:34:19 PM 30.1056 -94.9928 270° West 281 323 6,000  Level Houston Center
Sat 07:35:20 PM 30.1056 -95.0822 270° West 277 319 6,000  Level Houston Center
Sat 07:35:35 PM 30.1064 -95.1019 273° West 272 313 6,000  Level Houston Center
Sat 07:36:15 PM 30.1067 -95.1617 270° West 268 308 6,000  Level Houston Center
Sat 07:36:36 PM 30.1067 -95.1889 270° West 272 313 6,000  Level Houston Center
Sat 07:37:16 PM 30.1064 -95.2489 270° West 270 311 6,000  Level Houston Center
Sat 07:37:37 PM 30.1067 -95.2750 271° West 271 312 6,000  Level Houston Center
Sat 07:38:17 PM 30.1064 -95.3406 270° West 266 306 6,000 -290 Level Houston Center
Sat 07:38:39 PM 30.1081 -95.3586 276° West 263 303 5,700 -1,343 Descending Houston Center
Sat 07:39:24 PM 30.1053 -95.4203 267° West 226 260 4,500 -1,377 Descending Houston Center
Sat 07:39:40 PM 30.1075 -95.4303 284° West 231 266 4,300 -1,180 Descending Houston Center
Sat 07:40:25 PM 30.1053 -95.4903 268° West 220 253 3,300 -1,180 Descending Houston Center
Sat 07:40:41 PM 30.1075 -95.5033 281° West 228 262 3,100 -295 Descending Houston Center
Sat 07:41:26 PM 30.1056 -95.5628 268° West 192 221 3,000 -97 Descending Houston Center
Sat 07:41:43 PM 30.1031 -95.5656 224° Southwest 214 246 3,000  Level Houston Center
Sat 07:42:28 PM 30.0581 -95.5733 189° South 171 197 3,000  Level Houston Center
Sat 07:42:44 PM 30.0475 -95.5708 168° South 183 211 3,000 -393 Level Houston Center
Sat 07:43:29 PM 30.0272 -95.5336 122° Southeast 194 223 2,600 -689 Descending Houston Center
Sat 07:43:45 PM 30.0206 -95.5206 121° Southeast 185 213 2,300 -590 Descending Houston Center
Sat 07:44:30 PM 30.0058 -95.4831 114° Southeast 182 209 2,000 -400 Descending Houston Center

Login

Don't have an account? Register now (free) for customized features, flight alerts, and more!